createdAt,value
2022-12-22T00:01:46.538Z,60.70
2022-12-22T00:07:11.810Z,60.80
2022-12-22T00:12:35.654Z,60.90
2022-12-22T00:17:57.803Z,61.00
2022-12-22T00:23:19.928Z,60.80
2022-12-22T00:28:42.332Z,60.90
2022-12-22T00:34:04.595Z,60.70
2022-12-22T00:39:32.903Z,61.10
2022-12-22T00:44:54.970Z,61.00
2022-12-22T00:50:17.163Z,60.90
2022-12-22T00:55:45.531Z,61.00
2022-12-22T01:01:07.698Z,61.00
2022-12-22T01:06:30.762Z,61.00
2022-12-22T01:11:53.933Z,60.70
2022-12-22T01:17:16.087Z,60.70
2022-12-22T01:22:41.510Z,60.30
2022-12-22T01:28:03.668Z,60.70
2022-12-22T01:33:27.685Z,60.70
2022-12-22T01:38:50.079Z,61.00
2022-12-22T01:44:12.160Z,61.10
2022-12-22T01:49:57.842Z,61.00
2022-12-22T01:55:24.353Z,60.80
2022-12-22T02:00:46.709Z,60.80
2022-12-22T02:06:34.328Z,60.80
2022-12-22T02:22:44.859Z,61.00
2022-12-22T02:28:09.683Z,61.00
2022-12-22T02:33:32.571Z,61.00
2022-12-22T02:39:15.459Z,60.90
2022-12-22T02:45:02.613Z,60.80
2022-12-22T02:55:39.388Z,60.90
2022-12-22T03:01:01.755Z,60.90
2022-12-22T03:06:24.064Z,61.00
2022-12-22T03:11:46.251Z,60.80
2022-12-22T03:17:08.383Z,60.80
2022-12-22T03:22:30.512Z,60.90
2022-12-22T03:27:32.749Z,60.80
2022-12-22T03:32:35.030Z,60.70
2022-12-22T03:37:37.290Z,60.90
2022-12-22T03:42:59.453Z,61.00
2022-12-22T03:48:01.675Z,61.00
2022-12-22T03:53:05.061Z,61.00
2022-12-22T03:58:07.295Z,61.00
2022-12-22T04:03:09.751Z,61.20
2022-12-22T04:08:12.151Z,61.60
2022-12-22T04:13:14.373Z,61.00
2022-12-22T04:18:16.559Z,61.00
2022-12-22T04:23:18.817Z,61.00
2022-12-22T04:28:21.115Z,61.00
2022-12-22T04:33:23.361Z,61.00
2022-12-22T04:38:25.593Z,61.20
2022-12-22T04:43:28.170Z,61.10
2022-12-22T04:48:31.651Z,60.90
2022-12-22T04:53:34.309Z,61.00
2022-12-22T04:58:37.042Z,61.00
2022-12-22T05:03:39.680Z,61.00
2022-12-22T05:08:42.054Z,61.30
2022-12-22T05:13:44.288Z,61.30
2022-12-22T05:18:46.849Z,61.30
2022-12-22T05:23:49.977Z,61.10
2022-12-22T05:28:52.663Z,61.10
2022-12-22T05:33:55.003Z,61.00
2022-12-22T05:38:57.263Z,61.30
2022-12-22T05:43:59.493Z,61.60
2022-12-22T05:49:01.740Z,61.60
2022-12-22T05:54:04.106Z,61.70
2022-12-22T05:59:06.451Z,61.60
2022-12-22T06:04:08.794Z,61.60
2022-12-22T06:09:11.108Z,61.60
2022-12-22T06:14:13.474Z,61.70
2022-12-22T06:19:15.746Z,61.70
2022-12-22T06:24:18.038Z,61.90
2022-12-22T06:29:20.392Z,62.00
2022-12-22T06:34:22.572Z,62.00
2022-12-22T06:39:24.882Z,62.20
2022-12-22T06:44:27.394Z,62.30
2022-12-22T06:49:29.666Z,62.30
2022-12-22T06:54:31.973Z,62.40
2022-12-22T06:59:34.253Z,62.40
2022-12-22T07:04:36.580Z,62.40
2022-12-22T07:09:38.790Z,62.30
2022-12-22T07:14:41.138Z,62.30
2022-12-22T07:19:43.577Z,62.50
2022-12-22T07:24:45.780Z,62.50
2022-12-22T07:29:48.039Z,62.00
2022-12-22T07:34:50.260Z,61.50
2022-12-22T07:39:52.440Z,62.50
2022-12-22T07:44:54.665Z,62.70
2022-12-22T07:50:16.763Z,64.90
2022-12-22T07:55:19.847Z,66.20
2022-12-22T08:00:23.767Z,67.40
2022-12-22T08:05:26.221Z,65.70
2022-12-22T08:10:28.448Z,65.50
2022-12-22T08:15:30.741Z,61.20
2022-12-22T08:20:33.210Z,59.80
2022-12-22T08:25:35.749Z,60.60
2022-12-22T08:30:38.542Z,55.40
2022-12-22T08:35:41.196Z,58.30
2022-12-22T08:40:44.829Z,59.20
2022-12-22T08:45:47.103Z,55.00
2022-12-22T08:50:49.296Z,54.80
2022-12-22T08:55:53.563Z,55.30
2022-12-22T09:00:55.944Z,53.60
2022-12-22T09:06:02.363Z,50.80
2022-12-22T09:11:05.306Z,50.70
2022-12-22T09:16:09.124Z,51.20
2022-12-22T09:21:11.686Z,52.00
2022-12-22T09:26:17.229Z,52.40
2022-12-22T09:31:20.932Z,53.10
2022-12-22T09:36:27.027Z,52.80
2022-12-22T09:46:41.465Z,53.60
2022-12-22T09:51:48.156Z,53.40
2022-12-22T09:56:50.390Z,54.00
2022-12-22T10:02:17.788Z,54.40
2022-12-22T10:12:30.243Z,54.10
2022-12-22T10:17:34.404Z,54.50
2022-12-22T10:22:47.265Z,54.70
2022-12-22T10:27:51.611Z,54.00
2022-12-22T10:33:16.069Z,55.40
2022-12-22T10:43:38.430Z,54.60
2022-12-22T10:48:41.007Z,56.00
2022-12-22T10:53:55.820Z,56.40
2022-12-22T10:59:16.271Z,56.80
2022-12-22T11:04:28.041Z,56.50
2022-12-22T11:09:34.944Z,57.20
2022-12-22T11:15:23.803Z,56.90
2022-12-22T11:36:32.691Z,58.40
2022-12-22T11:41:52.369Z,58.50
2022-12-22T11:47:20.235Z,58.20
2022-12-22T11:52:58.377Z,58.70
2022-12-22T11:58:23.583Z,59.10
2022-12-22T12:08:58.910Z,59.10
2022-12-22T12:14:40.930Z,60.60
2022-12-22T12:20:14.974Z,61.00
2022-12-22T12:30:47.598Z,61.60
2022-12-22T12:41:14.445Z,62.00
2022-12-22T12:52:11.372Z,62.30
2022-12-22T13:02:57.766Z,62.30
2022-12-22T13:18:49.828Z,61.80
2022-12-22T13:39:27.449Z,62.90
2022-12-22T13:44:32.672Z,62.00
2022-12-22T13:50:07.293Z,62.50
2022-12-22T13:54:57.878Z,62.50
2022-12-22T14:00:00.202Z,63.20
2022-12-22T14:05:07.429Z,62.60
2022-12-22T14:10:11.032Z,63.30
2022-12-22T14:15:19.086Z,62.70
2022-12-22T14:20:43.007Z,62.80
2022-12-22T14:25:46.383Z,63.80
2022-12-22T14:30:53.589Z,62.80
2022-12-22T14:36:23.783Z,64.00
2022-12-22T14:41:46.856Z,63.50
2022-12-22T14:52:39.551Z,63.50
2022-12-22T14:57:43.230Z,63.40
2022-12-22T15:02:52.178Z,63.40
2022-12-22T15:08:06.686Z,63.20
2022-12-22T15:13:24.087Z,63.30
2022-12-22T15:18:28.629Z,63.10
2022-12-22T15:23:31.015Z,63.60
2022-12-22T15:28:33.531Z,63.80
2022-12-22T15:33:35.917Z,63.90
2022-12-22T15:38:39.342Z,63.60
2022-12-22T15:43:58.740Z,63.40
2022-12-22T15:49:02.134Z,63.40
2022-12-22T15:54:04.834Z,63.30
2022-12-22T15:59:14.869Z,63.30
2022-12-22T16:04:18.161Z,63.30
2022-12-22T16:09:24.224Z,63.10
2022-12-22T16:14:26.908Z,63.20
2022-12-22T16:19:29.340Z,62.80
2022-12-22T16:24:35.478Z,62.70
2022-12-22T16:29:38.833Z,62.50
2022-12-22T16:34:41.444Z,62.40
2022-12-22T16:39:44.405Z,62.60
2022-12-22T16:45:00.959Z,62.90
2022-12-22T16:50:03.750Z,62.50
2022-12-22T16:55:16.055Z,62.70
2022-12-22T17:00:21.645Z,62.40
2022-12-22T17:10:39.491Z,62.30
2022-12-22T17:15:41.882Z,62.30
2022-12-22T17:20:46.056Z,62.10
2022-12-22T17:25:48.392Z,62.00
2022-12-22T17:30:51.021Z,61.80
2022-12-22T17:35:53.931Z,61.70
2022-12-22T17:40:57.699Z,61.50
2022-12-22T17:46:00.443Z,61.40
2022-12-22T17:51:02.911Z,61.40
2022-12-22T17:56:08.695Z,61.30
2022-12-22T18:01:21.375Z,61.30
2022-12-22T18:06:28.971Z,61.30
2022-12-22T18:11:31.381Z,61.30
2022-12-22T18:16:33.784Z,61.30
2022-12-22T18:21:36.165Z,61.50
2022-12-22T18:26:38.482Z,61.40
2022-12-22T18:31:41.788Z,61.40
2022-12-22T18:36:45.764Z,61.50
2022-12-22T18:41:48.286Z,61.40
2022-12-22T18:46:50.925Z,61.60
2022-12-22T18:51:53.948Z,61.50
2022-12-22T18:56:56.309Z,61.50
2022-12-22T19:02:04.467Z,61.60
2022-12-22T19:07:15.596Z,61.80
2022-12-22T19:12:22.979Z,61.60
2022-12-22T19:17:28.965Z,61.40
2022-12-22T19:22:31.535Z,61.30
2022-12-22T19:27:33.969Z,61.00
2022-12-22T19:32:42.116Z,61.10
2022-12-22T19:37:46.337Z,61.50
2022-12-22T19:42:50.628Z,61.40
2022-12-22T19:47:55.419Z,61.40
2022-12-22T19:53:00.095Z,61.80
2022-12-22T19:58:02.828Z,61.70
2022-12-22T20:03:06.281Z,61.70
2022-12-22T20:08:08.762Z,61.60
2022-12-22T20:13:21.728Z,61.40
2022-12-22T20:18:29.301Z,61.40
2022-12-22T20:23:37.228Z,61.50
2022-12-22T20:28:40.755Z,61.50
2022-12-22T20:33:43.534Z,61.60
2022-12-22T20:38:47.204Z,61.40
2022-12-22T20:43:50.123Z,61.30
2022-12-22T20:48:56.807Z,61.40
2022-12-22T20:54:00.382Z,61.30
2022-12-22T20:59:17.687Z,61.10
2022-12-22T21:04:21.633Z,61.10
2022-12-22T21:09:24.705Z,61.20
2022-12-22T21:14:27.036Z,61.30
2022-12-22T21:19:29.436Z,61.30
2022-12-22T21:24:31.853Z,61.40
2022-12-22T21:29:34.591Z,61.60
2022-12-22T21:34:36.787Z,61.60
2022-12-22T21:39:42.684Z,61.60
2022-12-22T21:44:45.565Z,61.70
2022-12-22T21:49:47.925Z,61.60
2022-12-22T21:54:50.201Z,61.60
2022-12-22T21:59:52.569Z,61.60
2022-12-22T22:04:55.492Z,61.30
2022-12-22T22:09:57.908Z,61.00
2022-12-22T22:15:02.086Z,60.80
2022-12-22T22:21:04.848Z,60.60
2022-12-22T22:27:48.049Z,60.70
2022-12-22T22:33:30.311Z,60.80
2022-12-22T22:38:32.500Z,60.50
2022-12-22T22:43:34.718Z,60.60
2022-12-22T22:48:37.343Z,60.40
2022-12-22T22:53:39.624Z,60.40
2022-12-22T22:58:42.063Z,60.40
2022-12-22T23:03:44.801Z,60.40
2022-12-22T23:08:49.171Z,60.40
2022-12-22T23:13:53.976Z,60.60
2022-12-22T23:18:56.270Z,60.60
2022-12-22T23:23:58.805Z,60.90
2022-12-22T23:29:03.749Z,60.80
2022-12-22T23:34:06.363Z,61.00
2022-12-22T23:39:08.783Z,61.00
2022-12-22T23:44:11.093Z,60.80
2022-12-22T23:49:14.072Z,60.90
2022-12-22T23:54:16.353Z,60.80
2022-12-22T23:59:18.615Z,60.80
